Time;durP1;ratioP1;P1;durP2;ratioP2;P2;SDS_P1;SDS_P2;PMS_P1;PMS_P2;Temp;Humidity;BMP_temperature;BMP_pressure;BME280_temperature;BME280_humidity;BME280_pressure;Samples;Min_cycle;Max_cycle;Signal;HPM_P1;HPM_P2
2021/04/08 00:02:11;;;;;;;6.97;2.57;;;;;;;4.17;100.00;98678.34;5009788;28;20722;-70
2021/04/08 00:04:38;;;;;;;5.03;2.97;;;;;;;4.15;100.00;98684.75;5010824;28;20280;-70
2021/04/08 00:07:04;;;;;;;5.07;3.00;;;;;;;4.19;100.00;98684.34;5009677;28;20214;-70
2021/04/08 00:09:32;;;;;;;3.67;2.60;;;;;;;4.17;100.00;98691.56;5006644;28;20257;-70
2021/04/08 00:11:59;;;;;;;7.83;2.90;;;;;;;4.09;100.00;98688.81;5010763;28;20587;-71
2021/04/08 00:14:26;;;;;;;7.13;2.60;;;;;;;3.97;100.00;98681.22;5007689;28;20209;-70
2021/04/08 00:16:54;;;;;;;5.27;2.80;;;;;;;3.85;100.00;98683.19;5005129;28;20227;-70
2021/04/08 00:19:21;;;;;;;6.40;2.90;;;;;;;3.80;100.00;98671.38;5008246;28;20234;-70
2021/04/08 00:21:48;;;;;;;4.00;2.53;;;;;;;3.93;100.00;98667.47;5007276;28;20610;-70
2021/04/08 00:24:15;;;;;;;4.90;2.93;;;;;;;3.81;100.00;98673.06;5001832;28;20211;-70
2021/04/08 00:26:42;;;;;;;5.23;2.93;;;;;;;3.72;100.00;98666.00;5010084;28;20680;-70
2021/04/08 00:29:09;;;;;;;6.00;2.37;;;;;;;3.95;100.00;98667.31;5006978;28;20223;-70
2021/04/08 00:31:36;;;;;;;4.23;2.60;;;;;;;3.98;100.00;98667.03;5000656;28;20261;-70
2021/04/08 00:34:03;;;;;;;4.50;2.90;;;;;;;3.72;100.00;98668.63;5009314;28;20206;-71
2021/04/08 00:36:30;;;;;;;5.23;2.53;;;;;;;3.94;100.00;98677.06;5003535;28;20590;-71
2021/04/08 00:38:56;;;;;;;6.20;3.00;;;;;;;4.00;100.00;98668.56;5007770;28;20583;-71
2021/04/08 00:41:24;;;;;;;7.60;3.07;;;;;;;3.93;100.00;98661.34;5001103;28;20223;-70
2021/04/08 00:43:52;;;;;;;8.53;2.67;;;;;;;3.94;100.00;98668.28;5006667;28;20296;-70
2021/04/08 00:46:19;;;;;;;5.20;2.93;;;;;;;3.91;100.00;98677.34;5005505;28;20196;-71
2021/04/08 00:48:45;;;;;;;7.07;3.10;;;;;;;3.96;100.00;98677.72;5001694;28;20206;-71
2021/04/08 00:51:12;;;;;;;7.47;4.17;;;;;;;3.92;100.00;98672.91;5006638;28;20222;-70
2021/04/08 00:53:39;;;;;;;5.57;3.07;;;;;;;3.93;100.00;98667.47;5005419;28;20683;-70
2021/04/08 00:56:06;;;;;;;4.10;3.20;;;;;;;3.92;100.00;98675.53;5008455;28;20214;-71
2021/04/08 00:58:34;;;;;;;8.03;3.27;;;;;;;4.09;100.00;98677.41;5009570;28;20351;-71
2021/04/08 01:01:01;;;;;;;5.40;2.67;;;;;;;4.08;100.00;98681.88;5001334;28;20230;-71
2021/04/08 01:03:28;;;;;;;5.83;3.07;;;;;;;4.14;100.00;98689.22;5009890;28;20260;-71
2021/04/08 01:05:55;;;;;;;8.23;3.57;;;;;;;4.17;100.00;98682.81;5005610;28;20207;-71
2021/04/08 01:08:22;;;;;;;6.07;3.53;;;;;;;4.09;100.00;98691.47;5009787;28;20203;-70
2021/04/08 01:10:49;;;;;;;5.20;2.90;;;;;;;4.11;100.00;98691.34;5004242;28;20207;-70
2021/04/08 01:13:19;;;;;;;3.50;2.57;;;;;;;4.19;100.00;98692.28;5009562;28;20572;-70
2021/04/08 01:15:46;;;;;;;5.30;3.10;;;;;;;4.22;100.00;98699.06;5010722;28;20218;-70
2021/04/08 01:18:26;;;;;;;6.13;3.13;;;;;;;4.15;100.00;98701.44;5009770;28;20234;-70
2021/04/08 01:21:03;;;;;;;4.50;3.03;;;;;;;4.24;100.00;98700.59;5009136;28;20281;-70
2021/04/08 01:24:06;;;;;;;6.43;3.50;;;;;;;4.11;100.00;98693.97;5006491;28;20211;-70
2021/04/08 01:26:51;;;;;;;7.63;3.40;;;;;;;4.28;100.00;98696.69;5003901;28;20202;-70
2021/04/08 01:29:29;;;;;;;7.27;3.47;;;;;;;4.28;100.00;98701.97;5007944;28;20210;-70
2021/04/08 01:32:00;;;;;;;6.90;3.90;;;;;;;4.14;100.00;98710.34;5008876;28;20254;-70
2021/04/08 01:34:27;;;;;;;5.43;3.10;;;;;;;4.23;100.00;98709.50;5004849;28;20678;-70
2021/04/08 01:36:57;;;;;;;5.60;3.73;;;;;;;4.19;100.00;98700.19;5005902;28;20227;-70
2021/04/08 01:39:25;;;;;;;7.40;3.90;;;;;;;4.30;100.00;98715.00;5004448;28;20231;-70
2021/04/08 01:41:55;;;;;;;7.87;3.50;;;;;;;4.35;100.00;98718.06;5006158;28;20242;-70
2021/04/08 01:44:24;;;;;;;10.97;4.13;;;;;;;4.17;100.00;98725.09;5009851;28;20210;-70
2021/04/08 01:46:53;;;;;;;8.63;3.83;;;;;;;4.42;100.00;98722.63;5010774;28;20206;-70
2021/04/08 01:49:21;;;;;;;8.37;3.30;;;;;;;4.47;100.00;98728.31;5019921;28;20207;-70
2021/04/08 01:51:49;;;;;;;4.97;3.33;;;;;;;4.51;100.00;98729.69;5014112;28;20231;-70
2021/04/08 01:54:15;;;;;;;7.47;3.30;;;;;;;4.55;100.00;98731.06;5011034;28;20199;-70
2021/04/08 01:56:44;;;;;;;6.37;4.00;;;;;;;4.37;100.00;98735.44;5012727;28;20226;-70
2021/04/08 01:59:13;;;;;;;8.40;3.50;;;;;;;4.52;100.00;98749.03;5012079;28;20238;-70
2021/04/08 02:01:43;;;;;;;6.30;3.40;;;;;;;4.57;100.00;98747.59;5012778;28;20606;-70
2021/04/08 02:04:11;;;;;;;5.97;2.83;;;;;;;4.45;100.00;98750.56;5010999;28;20203;-70
2021/04/08 02:06:41;;;;;;;7.13;3.27;;;;;;;4.49;100.00;98744.00;5007814;28;20234;-70
2021/04/08 02:09:08;;;;;;;6.17;2.90;;;;;;;4.49;100.00;98750.16;5007737;28;20277;-70
2021/04/08 02:11:36;;;;;;;4.77;2.80;;;;;;;4.45;100.00;98751.41;5013201;28;20229;-70
2021/04/08 02:14:04;;;;;;;4.60;2.17;;;;;;;4.31;100.00;98748.41;5001753;28;20207;-70
2021/04/08 02:16:31;;;;;;;3.57;2.50;;;;;;;4.38;100.00;98752.13;5002064;28;20227;-70
2021/04/08 02:18:59;;;;;;;3.80;2.47;;;;;;;4.34;100.00;98748.09;5004204;28;20209;-70
2021/04/08 02:21:27;;;;;;;6.43;2.20;;;;;;;4.24;100.00;98742.88;5012201;28;20231;-70
2021/04/08 02:23:54;;;;;;;4.07;2.50;;;;;;;4.23;100.00;98745.63;5004805;28;20211;-70
2021/04/08 02:26:22;;;;;;;4.70;2.63;;;;;;;4.21;100.00;98737.84;5007560;28;20578;-70
2021/04/08 02:28:49;;;;;;;3.23;2.30;;;;;;;4.44;100.00;98751.53;5009349;28;20212;-70
2021/04/08 02:31:18;;;;;;;7.10;2.10;;;;;;;4.33;100.00;98747.28;5013225;28;20231;-70
2021/04/08 02:33:44;;;;;;;6.03;2.10;;;;;;;4.41;100.00;98749.19;5008964;28;20211;-70
2021/04/08 02:36:12;;;;;;;3.70;1.90;;;;;;;4.39;100.00;98751.16;4999650;28;20207;-70
2021/04/08 02:38:39;;;;;;;4.07;2.60;;;;;;;4.33;100.00;98752.56;5009087;28;20698;-70
2021/04/08 02:41:09;;;;;;;5.13;2.43;;;;;;;4.36;100.00;98754.91;5009172;28;20223;-70
2021/04/08 02:43:36;;;;;;;6.83;2.57;;;;;;;4.42;100.00;98756.16;5007013;28;20203;-70
2021/04/08 02:46:03;;;;;;;6.90;2.60;;;;;;;4.38;100.00;98757.41;5007374;28;20212;-70
2021/04/08 02:48:32;;;;;;;6.30;2.70;;;;;;;4.53;100.00;98758.63;5008165;28;20210;-70
2021/04/08 02:51:03;;;;;;;4.50;2.13;;;;;;;4.40;100.00;98766.03;5012243;28;20577;-70
2021/04/08 02:53:35;;;;;;;7.07;2.20;;;;;;;4.44;100.00;98759.47;5006804;28;20727;-70
2021/04/08 02:56:11;;;;;;;6.53;2.53;;;;;;;4.33;100.00;98768.44;5005418;28;20215;-70
2021/04/08 02:58:38;;;;;;;7.10;2.30;;;;;;;4.46;100.00;98771.56;5003915;28;20664;-70
2021/04/08 03:01:09;;;;;;;4.10;2.27;;;;;;;4.44;100.00;98772.69;5006780;28;20223;-70
2021/04/08 03:03:40;;;;;;;2.87;2.03;;;;;;;4.50;100.00;98780.88;5006747;28;20243;-70
2021/04/08 03:06:09;;;;;;;3.77;2.17;;;;;;;4.52;100.00;98781.56;5007300;28;20253;-70
2021/04/08 03:08:36;;;;;;;5.53;2.00;;;;;;;4.65;100.00;98786.53;5009443;28;20214;-70
2021/04/08 03:11:05;;;;;;;6.13;2.17;;;;;;;4.63;100.00;98786.66;5006631;28;20268;-70
2021/04/08 03:13:35;;;;;;;5.73;1.93;;;;;;;4.40;100.00;98784.50;5010964;28;20215;-70
2021/04/08 03:16:04;;;;;;;4.40;1.70;;;;;;;4.54;100.00;98787.53;5005024;28;20210;-70
2021/04/08 03:18:31;;;;;;;5.07;1.80;;;;;;;4.61;100.00;98787.78;5005717;28;20223;-70
2021/04/08 03:20:58;;;;;;;7.27;2.03;;;;;;;4.58;100.00;98786.25;5012164;28;20218;-69
2021/04/08 03:23:25;;;;;;;2.83;2.03;;;;;;;4.63;100.00;98781.38;5009762;28;20223;-70
2021/04/08 03:25:53;;;;;;;4.43;1.80;;;;;;;4.66;100.00;98785.53;5009832;28;20213;-71
2021/04/08 03:28:20;;;;;;;3.43;1.50;;;;;;;4.65;100.00;98791.81;5007750;28;20208;-71
2021/04/08 03:30:48;;;;;;;2.97;1.87;;;;;;;4.57;100.00;98791.72;5004118;28;20204;-69
2021/04/08 03:33:16;;;;;;;2.63;1.70;;;;;;;4.52;100.00;98800.06;5011120;28;20208;-70
2021/04/08 03:35:46;;;;;;;3.57;2.17;;;;;;;4.54;100.00;98799.91;5010601;28;20657;-70
2021/04/08 03:38:15;;;;;;;4.47;1.80;;;;;;;4.52;100.00;98799.25;5008803;28;20624;-70
2021/04/08 03:40:42;;;;;;;4.03;1.93;;;;;;;4.66;100.00;98796.94;5005263;28;20218;-70
2021/04/08 03:43:09;;;;;;;3.23;1.97;;;;;;;4.63;100.00;98791.13;5004588;28;20199;-70
2021/04/08 03:45:36;;;;;;;3.07;1.83;;;;;;;4.57;100.00;98795.16;5009598;28;20207;-70
2021/04/08 03:48:04;;;;;;;4.20;1.73;;;;;;;4.61;100.00;98801.84;5010394;28;20195;-70
2021/04/08 03:50:31;;;;;;;4.37;1.93;;;;;;;4.54;100.00;98805.22;5007408;28;20203;-70
2021/04/08 03:52:58;;;;;;;5.60;2.00;;;;;;;4.40;100.00;98808.28;5009782;28;20243;-70
2021/04/08 03:55:26;;;;;;;7.13;1.67;;;;;;;4.63;100.00;98807.00;5001569;28;20939;-70
2021/04/08 03:57:54;;;;;;;6.03;2.00;;;;;;;4.22;100.00;98804.75;5005951;28;20783;-70
2021/04/08 04:00:21;;;;;;;2.67;1.57;;;;;;;4.57;100.00;98797.81;5006460;28;20214;-70
2021/04/08 04:02:48;;;;;;;1.97;1.57;;;;;;;4.49;100.00;98804.81;5008107;28;20254;-70
2021/04/08 04:05:16;;;;;;;7.40;1.97;;;;;;;4.58;100.00;98811.88;5007232;28;20211;-70
2021/04/08 04:07:49;;;;;;;7.80;2.17;;;;;;;4.62;100.00;98806.16;5002683;28;20199;-70
2021/04/08 04:10:19;;;;;;;3.37;2.00;;;;;;;4.52;100.00;98813.28;5007422;28;20249;-70
2021/04/08 04:12:46;;;;;;;3.80;1.90;;;;;;;4.43;100.00;98821.22;5003508;28;20594;-70
2021/04/08 04:15:14;;;;;;;3.97;1.80;;;;;;;4.49;100.00;98825.94;5009038;28;20210;-70
2021/04/08 04:17:41;;;;;;;4.27;1.97;;;;;;;4.29;100.00;98826.97;5004767;28;20224;-70
2021/04/08 04:20:08;;;;;;;4.63;1.83;;;;;;;4.41;100.00;98818.72;5008661;28;20203;-70
2021/04/08 04:22:37;;;;;;;2.57;1.67;;;;;;;4.48;100.00;98824.28;5005053;28;20231;-70
2021/04/08 04:25:05;;;;;;;4.00;1.80;;;;;;;4.15;100.00;98824.75;5006259;28;20675;-70
2021/04/08 04:27:32;;;;;;;4.50;1.80;;;;;;;4.34;100.00;98828.22;5005204;28;20712;-70
2021/04/08 04:29:59;;;;;;;5.37;1.83;;;;;;;4.41;100.00;98825.81;5008695;28;20559;-70
2021/04/08 04:32:26;;;;;;;5.30;2.50;;;;;;;4.31;100.00;98820.56;5009391;28;20610;-70
2021/04/08 04:34:53;;;;;;;3.87;2.07;;;;;;;4.39;100.00;98831.25;5008357;28;20243;-70
2021/04/08 04:37:19;;;;;;;3.63;2.10;;;;;;;4.40;100.00;98840.00;5008172;28;20229;-70
2021/04/08 04:39:48;;;;;;;3.23;1.70;;;;;;;4.31;100.00;98840.88;5011291;28;20211;-70
2021/04/08 04:42:15;;;;;;;4.47;2.00;;;;;;;4.38;100.00;98844.63;5003659;28;20231;-70
2021/04/08 04:44:41;;;;;;;3.73;2.00;;;;;;;4.32;100.00;98839.91;5010612;28;20233;-70
2021/04/08 04:47:08;;;;;;;3.53;2.10;;;;;;;4.18;100.00;98838.53;5011677;28;20256;-71
2021/04/08 04:49:35;;;;;;;3.90;2.23;;;;;;;4.23;100.00;98849.50;5009228;28;20204;-70
2021/04/08 04:52:03;;;;;;;3.93;1.87;;;;;;;4.35;100.00;98850.16;5008950;28;20223;-75
2021/04/08 04:54:29;;;;;;;4.00;2.07;;;;;;;4.37;100.00;98850.88;5007934;28;20307;-70
2021/04/08 04:56:57;;;;;;;7.70;2.30;;;;;;;4.36;100.00;98851.84;5007326;28;20561;-74
2021/04/08 04:59:24;;;;;;;4.43;1.77;;;;;;;4.38;100.00;98858.66;5011310;28;20198;-70
2021/04/08 05:01:50;;;;;;;4.80;2.20;;;;;;;4.29;100.00;98862.16;5008679;28;20223;-72
2021/04/08 05:04:17;;;;;;;5.30;2.00;;;;;;;4.28;100.00;98865.78;5009341;28;20199;-72
2021/04/08 05:06:44;;;;;;;4.97;2.00;;;;;;;4.50;100.00;98867.25;5006400;28;20203;-72
2021/04/08 05:09:11;;;;;;;8.43;2.00;;;;;;;4.51;100.00;98861.81;5009345;28;20215;-72
2021/04/08 05:11:38;;;;;;;5.33;2.33;;;;;;;4.51;100.00;98863.63;5008164;28;20230;-71
2021/04/08 05:14:05;;;;;;;6.00;2.50;;;;;;;4.49;100.00;98865.59;5005756;28;20223;-71
2021/04/08 05:16:32;;;;;;;5.00;2.10;;;;;;;4.44;100.00;98868.66;5006533;28;20207;-71
2021/04/08 05:18:59;;;;;;;8.57;2.90;;;;;;;4.51;100.00;98880.31;5010599;28;20923;-72
2021/04/08 05:21:26;;;;;;;5.43;2.20;;;;;;;4.51;100.00;98875.03;5010554;28;20707;-70
2021/04/08 05:23:52;;;;;;;5.33;2.10;;;;;;;4.48;100.00;98872.66;5014015;28;20215;-70
2021/04/08 05:26:20;;;;;;;5.90;2.30;;;;;;;4.48;100.00;98885.06;5014846;28;20210;-69
2021/04/08 05:28:47;;;;;;;5.97;2.60;;;;;;;4.69;100.00;98883.06;5014661;28;20723;-70
2021/04/08 05:31:14;;;;;;;5.67;2.57;;;;;;;4.51;100.00;98887.41;5014409;28;20250;-69
2021/04/08 05:33:41;;;;;;;6.10;2.73;;;;;;;4.74;100.00;98899.34;5014323;28;20207;-71
2021/04/08 05:36:08;;;;;;;5.63;2.60;;;;;;;4.64;100.00;98893.25;5015134;28;20206;-69
2021/04/08 05:38:35;;;;;;;7.17;3.00;;;;;;;4.63;100.00;98899.50;5014389;28;20254;-69
2021/04/08 05:41:02;;;;;;;7.43;2.77;;;;;;;4.67;100.00;98899.06;5013970;28;20239;-69
2021/04/08 05:43:29;;;;;;;3.57;2.07;;;;;;;4.91;100.00;98899.44;5014145;28;20257;-69
2021/04/08 05:45:55;;;;;;;7.33;3.03;;;;;;;5.02;100.00;98898.44;5008503;28;20207;-69
2021/04/08 05:48:23;;;;;;;14.17;2.97;;;;;;;4.99;100.00;98899.56;5014215;28;20206;-69
2021/04/08 05:50:50;;;;;;;5.23;2.70;;;;;;;4.99;100.00;98902.22;5014406;28;20208;-69
2021/04/08 05:53:16;;;;;;;6.93;2.30;;;;;;;4.93;100.00;98900.13;5013549;28;20209;-69
2021/04/08 05:55:43;;;;;;;4.57;2.23;;;;;;;5.13;100.00;98898.25;5014335;28;20269;-69
2021/04/08 05:58:10;;;;;;;4.07;2.20;;;;;;;5.30;100.00;98905.41;5013566;28;20242;-69
2021/04/08 06:00:37;;;;;;;8.10;2.20;;;;;;;5.32;100.00;98906.94;5014066;28;20199;-69
2021/04/08 06:03:04;;;;;;;3.90;2.20;;;;;;;5.44;100.00;98908.41;5014176;28;20790;-69
2021/04/08 06:05:31;;;;;;;6.13;2.20;;;;;;;5.40;97.41;98919.44;5014556;28;20210;-69
2021/04/08 06:07:58;;;;;;;3.37;2.00;;;;;;;5.64;96.15;98919.75;5012814;28;20668;-69
2021/04/08 06:10:25;;;;;;;4.23;2.07;;;;;;;5.42;98.23;98913.03;5009198;28;20311;-69
2021/04/08 06:12:52;;;;;;;7.17;1.87;;;;;;;5.82;96.76;98908.22;5013621;28;20258;-71
2021/04/08 06:15:20;;;;;;;5.60;2.20;;;;;;;5.59;93.12;98922.00;5012994;28;20203;-71
2021/04/08 06:17:47;;;;;;;4.57;2.30;;;;;;;5.62;96.92;98917.22;5009575;28;20262;-74
2021/04/08 06:20:14;;;;;;;3.60;1.80;;;;;;;5.74;94.80;98912.56;5014335;28;20203;-72
2021/04/08 06:22:42;;;;;;;5.23;2.10;;;;;;;5.89;91.39;98922.53;5012658;28;20231;-70
2021/04/08 06:25:10;;;;;;;6.10;2.17;;;;;;;6.10;95.86;98919.63;5013542;28;20213;-72
2021/04/08 06:27:36;;;;;;;5.60;2.03;;;;;;;6.09;90.00;98929.38;5013225;28;20695;-71
2021/04/08 06:30:04;;;;;;;3.37;1.87;;;;;;;6.17;88.98;98932.09;5009671;28;20653;-71
2021/04/08 06:32:31;;;;;;;10.80;2.10;;;;;;;6.41;87.79;98936.78;5013320;28;20595;-71
2021/04/08 06:34:58;;;;;;;3.73;2.00;;;;;;;6.38;85.74;98937.94;5007412;28;20237;-73
2021/04/08 06:37:25;;;;;;;3.07;2.00;;;;;;;6.41;88.72;98935.00;5012809;28;20712;-70
2021/04/08 06:39:53;;;;;;;5.73;2.27;;;;;;;6.47;84.63;98938.84;5005954;28;20526;-71
2021/04/08 06:42:20;;;;;;;3.93;2.20;;;;;;;6.51;80.71;98942.84;5012953;28;20290;-72
2021/04/08 06:44:50;;;;;;;6.80;2.40;;;;;;;6.49;85.59;98931.59;5006647;28;20270;-72
2021/04/08 06:47:23;;;;;;;4.13;2.03;;;;;;;6.65;81.57;98945.78;5012940;28;20237;-71
2021/04/08 06:49:54;;;;;;;7.80;2.20;;;;;;;6.78;78.60;98945.38;5012733;28;20208;-74
2021/04/08 06:52:21;;;;;;;4.03;2.47;;;;;;;6.41;79.84;98945.59;5012497;28;20324;-73
2021/04/08 06:54:48;;;;;;;7.40;2.63;;;;;;;6.92;78.87;98942.19;5006080;28;20694;-73
2021/04/08 06:57:19;;;;;;;5.67;2.27;;;;;;;7.26;72.27;98953.69;5012961;28;20221;-74
2021/04/08 06:59:46;;;;;;;3.87;2.40;;;;;;;7.17;74.12;98949.31;5004570;28;20219;-73
2021/04/08 07:02:17;;;;;;;6.57;3.00;;;;;;;6.84;74.85;98945.59;5013113;28;20251;-73
2021/04/08 07:04:44;;;;;;;4.60;2.50;;;;;;;7.14;71.24;98953.13;5011111;28;20213;-73
2021/04/08 07:07:11;;;;;;;4.73;2.70;;;;;;;7.38;68.26;98960.38;5013044;28;20642;-71
2021/04/08 07:09:38;;;;;;;4.93;2.87;;;;;;;7.60;64.45;98970.44;5012483;28;20208;-71
2021/04/08 07:12:06;;;;;;;8.10;3.00;;;;;;;7.17;67.05;98966.09;5008574;28;20232;-71
2021/04/08 07:14:33;;;;;;;4.57;2.60;;;;;;;7.21;71.00;98964.75;5011869;28;20217;-72
2021/04/08 07:17:00;;;;;;;7.40;2.83;;;;;;;7.25;66.60;98974.09;5012433;28;20569;-72
2021/04/08 07:19:29;;;;;;;6.10;3.20;;;;;;;7.09;64.91;98978.44;5012083;28;20252;-72
2021/04/08 07:22:00;;;;;;;7.30;3.10;;;;;;;6.90;65.40;98990.09;5012358;28;20236;-72
2021/04/08 07:24:26;;;;;;;5.20;3.27;;;;;;;7.07;60.18;98991.06;5012401;28;20206;-72
2021/04/08 07:26:59;;;;;;;5.27;2.50;;;;;;;7.10;61.28;98990.75;5011887;28;20245;-72
2021/04/08 07:29:56;;;;;;;4.80;2.70;;;;;;;7.82;60.01;98988.50;5012056;28;20204;-72
2021/04/08 07:32:26;;;;;;;4.63;2.90;;;;;;;7.09;59.79;98997.03;5009054;28;20237;-72
2021/04/08 07:34:54;;;;;;;7.10;3.00;;;;;;;7.73;63.22;98992.09;5012329;28;20208;-72
2021/04/08 07:37:23;;;;;;;6.07;3.17;;;;;;;8.13;59.78;98994.94;5012016;28;20243;-72
2021/04/08 07:39:50;;;;;;;6.00;3.37;;;;;;;7.89;54.95;99016.94;5012446;28;20209;-72
2021/04/08 07:42:18;;;;;;;5.93;3.50;;;;;;;8.30;57.89;98996.66;5011333;28;20657;-73
2021/04/08 07:44:47;;;;;;;10.13;3.73;;;;;;;8.42;56.97;99004.16;5011759;28;20576;-73
2021/04/08 07:47:20;;;;;;;10.13;3.80;;;;;;;8.28;56.93;99012.78;5012288;28;20205;-73
2021/04/08 07:49:48;;;;;;;6.53;3.03;;;;;;;7.86;55.97;99006.63;5012338;28;20214;-72
2021/04/08 07:52:21;;;;;;;8.20;3.47;;;;;;;8.26;57.40;99017.44;5012023;28;20230;-72
2021/04/08 07:55:13;;;;;;;5.57;3.03;;;;;;;7.75;56.12;99020.19;5010762;28;20210;-70
2021/04/08 07:58:12;;;;;;;5.33;3.30;;;;;;;7.72;56.09;99023.16;4999140;28;20290;-78
2021/04/08 08:00:40;;;;;;;6.67;3.10;;;;;;;7.31;57.84;99021.25;5010195;28;20649;-71
2021/04/08 08:03:10;;;;;;;8.07;3.20;;;;;;;7.26;59.59;99015.56;5011585;28;20297;-71
2021/04/08 08:05:38;;;;;;;7.40;3.87;;;;;;;6.82;61.58;99005.97;5011127;28;20747;-71
2021/04/08 08:08:11;;;;;;;9.83;3.53;;;;;;;7.78;59.17;99016.38;5011389;28;20871;-72
2021/04/08 08:10:40;;;;;;;5.80;2.90;;;;;;;7.48;60.34;99017.72;5011262;28;20206;-72
2021/04/08 08:13:09;;;;;;;4.67;2.90;;;;;;;8.14;59.46;99020.50;5011703;28;21556;-72
2021/04/08 08:15:41;;;;;;;6.57;3.40;;;;;;;8.49;54.92;99018.50;5011380;28;20229;-72
2021/04/08 08:18:26;;;;;;;7.00;2.90;;;;;;;8.21;55.99;99032.19;5011702;28;20252;-72
2021/04/08 08:21:05;;;;;;;3.73;2.77;;;;;;;8.69;52.72;99033.19;5011602;28;20210;-72
2021/04/08 08:23:37;;;;;;;9.97;3.03;;;;;;;8.39;54.24;99022.28;5004985;28;20207;-72
2021/04/08 08:26:26;;;;;;;6.60;2.60;;;;;;;7.57;55.65;99026.56;5007730;28;20209;-73
2021/04/08 08:28:54;;;;;;;9.57;2.43;;;;;;;7.39;55.39;99021.31;5011404;28;20203;-73
2021/04/08 08:31:34;;;;;;;4.13;2.40;;;;;;;7.79;55.47;99020.69;5011995;28;20711;-72
2021/04/08 08:34:06;;;;;;;5.37;2.57;;;;;;;8.38;54.38;99016.13;5011210;28;20203;-72
2021/04/08 08:36:34;;;;;;;5.17;2.53;;;;;;;8.44;51.12;99035.94;5011697;28;20256;-71
2021/04/08 08:39:01;;;;;;;3.90;2.50;;;;;;;7.83;54.40;99028.22;5006732;28;20223;-71
2021/04/08 08:41:29;;;;;;;7.33;2.73;;;;;;;8.47;50.96;99028.44;5006403;28;20287;-71
2021/04/08 08:43:57;;;;;;;6.13;2.43;;;;;;;8.09;50.43;99033.47;5011024;28;20218;-71
2021/04/08 08:46:25;;;;;;;7.30;2.43;;;;;;;8.28;48.17;99038.56;5011757;28;20210;-71
2021/04/08 08:48:53;;;;;;;7.80;2.90;;;;;;;7.28;49.19;99047.28;5010883;28;20201;-71
2021/04/08 08:51:21;;;;;;;5.77;2.73;;;;;;;8.44;46.80;99050.06;5011682;28;20223;-71
2021/04/08 08:53:48;;;;;;;9.90;2.30;;;;;;;8.26;46.65;99051.16;5010406;28;20203;-73
2021/04/08 08:56:15;;;;;;;3.97;2.47;;;;;;;8.58;43.65;99052.09;5009388;28;20672;-70
2021/04/08 08:58:42;;;;;;;4.13;2.33;;;;;;;8.93;44.90;99048.34;5014988;28;20230;-71
2021/04/08 09:01:09;;;;;;;10.27;2.70;;;;;;;8.77;48.67;99029.69;5015310;28;20223;-82
2021/04/08 09:03:36;;;;;;;5.33;2.20;;;;;;;9.28;44.78;99034.69;5006893;28;20203;-72
2021/04/08 09:06:05;;;;;;;5.43;2.40;;;;;;;9.72;44.90;99034.09;5005814;28;20241;-71
2021/04/08 09:08:36;;;;;;;5.20;2.17;;;;;;;9.45;44.36;99041.66;5014519;28;20649;-72
2021/04/08 09:11:03;;;;;;;3.27;2.37;;;;;;;9.18;47.23;99031.38;5015611;28;20696;-80
2021/04/08 09:13:30;;;;;;;4.03;1.97;;;;;;;9.55;43.27;99035.13;5016841;28;20203;-73
2021/04/08 09:15:59;;;;;;;5.00;2.50;;;;;;;10.53;42.01;99040.81;5014648;28;20209;-71
2021/04/08 09:18:26;;;;;;;3.30;1.83;;;;;;;10.20;40.89;99043.81;5015329;28;20225;-75
2021/04/08 09:20:54;;;;;;;4.93;2.47;;;;;;;9.84;42.72;99042.59;5015071;28;20549;-71
2021/04/08 09:23:23;;;;;;;7.83;2.80;;;;;;;9.28;47.67;99032.03;5012997;28;20259;-72
2021/04/08 09:25:53;;;;;;;5.70;2.03;;;;;;;9.37;43.63;99042.50;5014640;28;20214;-74
2021/04/08 09:28:21;;;;;;;4.90;2.17;;;;;;;8.87;46.13;99044.50;5012221;28;20628;-70
2021/04/08 09:30:57;;;;;;;3.60;2.50;;;;;;;8.95;45.58;99038.34;5014847;28;20211;-73
2021/04/08 09:33:56;;;;;;;4.20;1.80;;;;;;;9.09;42.69;99053.66;5015287;28;20203;-73
2021/04/08 09:36:42;;;;;;;3.47;2.00;;;;;;;8.91;42.44;99051.16;5012024;28;20203;-72
2021/04/08 09:39:27;;;;;;;5.97;2.27;;;;;;;9.30;42.46;99048.66;5014343;28;20222;-72
2021/04/08 09:42:02;;;;;;;3.17;2.00;;;;;;;9.37;40.65;99054.97;5012933;28;20235;-71
2021/04/08 09:44:30;;;;;;;5.47;2.13;;;;;;;9.28;42.03;99042.69;5013373;28;20675;-73
2021/04/08 09:46:59;;;;;;;4.10;2.23;;;;;;;9.55;41.95;99045.78;5014399;28;20219;-73
2021/04/08 09:49:50;;;;;;;4.50;1.93;;;;;;;9.11;40.45;99043.66;5014785;28;20219;-72
2021/04/08 09:52:18;;;;;;;5.13;2.13;;;;;;;8.91;40.79;99043.16;4994138;28;20680;-73
2021/04/08 09:54:51;;;;;;;4.33;1.83;;;;;;;7.91;42.97;99041.53;5005577;28;20695;-74
2021/04/08 09:57:40;;;;;;;4.67;1.90;;;;;;;8.73;41.35;99041.66;5013822;28;21007;-76
2021/04/08 10:00:12;;;;;;;2.43;1.70;;;;;;;8.76;40.93;99038.66;5008016;28;20241;-73
2021/04/08 10:02:39;;;;;;;7.47;2.40;;;;;;;8.70;42.33;99040.16;5014181;28;20226;-73
2021/04/08 10:05:08;;;;;;;6.77;2.40;;;;;;;9.11;41.30;99044.50;5014181;28;20205;-72
2021/04/08 10:07:53;;;;;;;6.93;2.33;;;;;;;9.54;39.59;99041.47;5012755;28;20208;-70
2021/04/08 10:10:23;;;;;;;3.13;2.10;;;;;;;8.61;43.16;99025.16;5005235;28;20208;-72
2021/04/08 10:12:51;;;;;;;4.40;2.20;;;;;;;8.80;43.69;99024.03;5011187;28;20227;-73
2021/04/08 10:15:30;;;;;;;5.27;2.70;;;;;;;8.79;44.51;99023.19;5010129;28;20207;-72
2021/04/08 10:17:57;;;;;;;5.07;2.70;;;;;;;9.27;43.76;99033.00;5013802;28;20268;-71
2021/04/08 10:20:36;;;;;;;6.13;3.03;;;;;;;8.01;44.96;99030.78;5014491;28;20207;-72
2021/04/08 10:23:03;;;;;;;4.57;2.50;;;;;;;7.90;46.19;99017.75;5010142;28;20223;-72
2021/04/08 10:25:30;;;;;;;5.90;2.47;;;;;;;8.25;46.67;99009.59;5008218;28;20205;-71
2021/04/08 10:27:58;;;;;;;3.23;2.20;;;;;;;8.01;45.58;99025.47;5012222;28;20211;-76
2021/04/08 10:31:03;;;;;;;5.70;2.90;;;;;;;8.33;45.40;99028.25;5013224;28;20251;-73
2021/04/08 10:33:52;;;;;;;4.27;1.90;;;;;;;9.04;42.33;99026.69;5017936;28;20211;-73
2021/04/08 10:36:29;;;;;;;4.97;2.20;;;;;;;9.48;41.33;99023.50;5013272;28;20208;-72
2021/04/08 10:39:07;;;;;;;3.40;2.47;;;;;;;9.45;40.39;99031.00;5016328;28;20231;-72
2021/04/08 10:41:34;;;;;;;3.43;2.47;;;;;;;8.82;42.17;99020.19;5024155;28;20257;-73
2021/04/08 10:44:20;;;;;;;3.83;2.57;;;;;;;9.36;48.68;99008.88;5012257;28;20208;-73
2021/04/08 10:46:47;;;;;;;7.30;3.27;;;;;;;9.03;46.12;99007.22;5014750;28;20992;-73
2021/04/08 10:49:22;;;;;;;10.37;2.83;;;;;;;9.42;45.48;99002.88;5009168;28;20249;-72
2021/04/08 10:51:49;;;;;;;6.23;2.63;;;;;;;9.15;45.95;98991.75;5013711;28;20732;-74
2021/04/08 10:54:16;;;;;;;7.80;2.77;;;;;;;10.10;40.78;99016.50;5013441;28;20234;-72
2021/04/08 10:56:48;;;;;;;5.53;3.33;;;;;;;9.43;41.52;99014.38;5012864;28;20306;-71
2021/04/08 10:59:18;;;;;;;5.43;2.57;;;;;;;10.39;39.83;99025.53;5010600;28;20227;-77
2021/04/08 11:01:46;;;;;;;2.60;1.80;;;;;;;10.26;37.94;99030.59;5012329;28;20237;-75
2021/04/08 11:04:13;;;;;;;5.10;2.03;;;;;;;9.89;38.43;99019.72;5013655;28;20203;-74
2021/04/08 11:06:40;;;;;;;7.50;2.50;;;;;;;10.34;38.81;99027.91;5013119;28;20207;-75
2021/04/08 11:09:07;;;;;;;3.90;2.53;;;;;;;9.90;39.26;99016.03;5008284;28;20200;-73
2021/04/08 11:11:35;;;;;;;5.27;2.20;;;;;;;10.54;38.18;99033.63;5010741;28;20265;-74
2021/04/08 11:14:02;;;;;;;7.63;2.50;;;;;;;10.56;36.85;99034.28;5011945;28;20201;-74
2021/04/08 11:16:30;;;;;;;5.00;2.00;;;;;;;10.45;38.41;99032.03;5008345;28;20653;-74
2021/04/08 11:19:01;;;;;;;7.03;2.60;;;;;;;9.76;39.33;99022.13;5011753;28;20721;-74
2021/04/08 11:21:29;;;;;;;4.43;2.17;;;;;;;9.28;41.34;99011.53;5011684;28;20235;-75
2021/04/08 11:23:56;;;;;;;6.50;2.70;;;;;;;9.82;41.06;99016.09;5013538;28;20774;-74
2021/04/08 11:26:23;;;;;;;5.97;2.60;;;;;;;10.18;37.88;99022.63;5011679;28;20665;-75
2021/04/08 11:28:57;;;;;;;4.90;2.20;;;;;;;10.91;35.86;99037.22;5010695;28;20577;-74
2021/04/08 11:31:26;;;;;;;2.97;1.77;;;;;;;10.54;36.95;99023.78;5011421;28;20233;-74
2021/04/08 11:33:57;;;;;;;4.27;2.30;;;;;;;10.48;36.79;99025.50;5013786;28;20213;-78
2021/04/08 11:36:26;;;;;;;4.50;2.40;;;;;;;10.50;37.46;99017.13;5013634;28;20287;-79
2021/04/08 11:38:53;;;;;;;7.23;2.10;;;;;;;9.17;38.76;99016.38;5015473;28;20508;-79
2021/04/08 11:41:20;;;;;;;4.50;2.30;;;;;;;9.24;38.57;99006.72;5011786;28;20644;-78
2021/04/08 11:43:49;;;;;;;3.80;2.43;;;;;;;9.77;37.61;99005.09;5012008;28;20443;-79
2021/04/08 11:46:30;;;;;;;7.80;2.30;;;;;;;9.83;38.79;99007.06;5016307;28;20261;-79
2021/04/08 11:48:59;;;;;;;7.17;2.33;;;;;;;11.03;36.74;99008.25;5013514;28;20252;-79